Buoy 16575

sailwx.info

Track history (hours):
 
Tides and Currents Weather Stations Pressure Air Temp Water Temp Dewpoint Dewpoint Depression Visibility Wind Speed Wind Dir Waves Ship Positions

Drifting buoy 16575

Last reported at 2015-Mar-31 00:10 UTC. Time now 2015-Mar-31 02:03 UTC.
Position S 28°06' E 039°09'.

Water temperature 28.4 ° C

Date/timePositionNaut miles runAvg speedWind from/ knotsBaromVisibWave heightAir tempDewpointWater temp
2015-Mar-31 00:10S 28°06' E 039°09'1 1.2 28.4
2015-Mar-30 23:10S 28°06' E 039°07'2 2.2 28.4
2015-Mar-30 22:10S 28°06' E 039°05'0 0.0 28.4
2015-Mar-30 21:10S 28°06' E 039°05'4 1.9 28.4
2015-Mar-30 19:10S 28°06' E 039°01'1 0.8 28.4
2015-Mar-30 18:10S 28°05' E 038°60'0 0.0 28.4
2015-Mar-30 17:10S 28°05' E 038°60'4 1.3 28.5
2015-Mar-30 14:10S 28°05' E 038°55'1 1.4 28.7
2015-Mar-30 13:10S 28°05' E 038°54'1 1.2 28.7
2015-Mar-30 12:10S 28°05' E 038°52'6 3.1 28.8
2015-Mar-30 10:10S 28°06' E 038°45'3 0.6 28.8
2015-Mar-30 06:10S 28°06' E 038°43'0 0.5 28.4
2015-Mar-30 05:10S 28°06' E 038°42'4 1.9 28.4
2015-Mar-30 03:10S 28°06' E 038°38'0 0.1 28.4
2015-Mar-30 02:10S 28°06' E 038°38'2 2.1 28.5
2015-Mar-30 01:10S 28°06' E 038°35'0 0.1 28.8
2015-Mar-30 00:10S 28°06' E 038°35'1 1.5 28.9
2015-Mar-29 23:10S 28°06' E 038°34'2 1.8 29.0
2015-Mar-29 22:10S 28°07' E 038°32'0 0.1 29.0
2015-Mar-29 21:10S 28°07' E 038°32'4 3.8 29.1
2015-Mar-29 20:10S 28°07' E 038°27'0 0.0 29.1
2015-Mar-29 19:10S 28°07' E 038°27'1 1.2 29.2
2015-Mar-29 18:10S 28°07' E 038°26'4 2.2 29.2
2015-Mar-29 16:10S 28°08' E 038°21'3 2.7 29.3
2015-Mar-29 15:10S 28°08' E 038°18'0 0.1 29.4
2015-Mar-29 13:10S 28°08' E 038°18'2 2.1 29.4
2015-Mar-29 12:10S 28°08' E 038°16'3 1.6 29.4
2015-Mar-29 10:10S 28°08' E 038°12'6 1.6 29.3
2015-Mar-29 06:10S 28°09' E 038°05'4 3.9 29.2
2015-Mar-29 05:10S 28°09' E 038°00'0 0.0 29.2
2015-Mar-29 04:10S 28°09' E 038°00'2 1.1 29.1
2015-Mar-29 02:10S 28°09' E 037°58'3 1.6 29.1
2015-Mar-29 00:10S 28°10' E 037°54'0 0.4 29.1
2015-Mar-28 23:10S 28°09' E 037°54'2 1.6 29.2
2015-Mar-28 22:10S 28°10' E 037°52'2 1.2 29.2
2015-Mar-28 20:10S 28°11' E 037°50'1 0.6 29.2
2015-Mar-28 18:10S 28°11' E 037°48'3 1.0 29.3
2015-Mar-28 15:10S 28°13' E 037°45'4 1.8 29.4
2015-Mar-28 13:10S 28°15' E 037°42'0 0.0 29.6
2015-Mar-28 12:10S 28°15' E 037°42'3 1.3 29.8
2015-Mar-28 10:10S 28°16' E 037°40'4 1.5 29.7
2015-Mar-28 07:10S 28°18' E 037°35'1 1.4 29.3
2015-Mar-28 06:10S 28°19' E 037°34'1 0.7 29.3
2015-Mar-28 04:10S 28°19' E 037°32'1 1.3 29.2
2015-Mar-28 03:10S 28°20' E 037°31'2 1.5 29.2
2015-Mar-28 02:10S 28°21' E 037°30'0 0.3 29.2
2015-Mar-28 01:10S 28°21' E 037°30'2 0.9 29.2
2015-Mar-27 23:10S 28°23' E 037°29'4 2.0 29.2
2015-Mar-27 21:10S 28°27' E 037°26'3 1.3 29.2
2015-Mar-27 19:10S 28°29' E 037°25'2 1.5 29.2
2015-Mar-27 18:10S 28°30' E 037°24'0 0.0 29.3
2015-Mar-27 17:10S 28°30' E 037°24'3 2.8 29.3
2015-Mar-27 16:10S 28°32' E 037°22'1 1.1 29.3
2015-Mar-27 15:10S 28°33' E 037°21'2 2.3 29.4
2015-Mar-27 14:10S 28°35' E 037°19'3 2.9 29.5
2015-Mar-27 13:10S 28°37' E 037°17'0 0.0 29.5
2015-Mar-27 12:10S 28°37' E 037°17'8 3.8 29.6
2015-Mar-27 10:10S 28°43' E 037°11'1 0.4 29.4
2015-Mar-27 07:10S 28°44' E 037°10'1 1.4 29.2
2015-Mar-27 06:10S 28°44' E 037°09'2 2.0 29.2
2015-Mar-27 05:10S 28°46' E 037°07'2 2.5 29.2
2015-Mar-27 04:10S 28°47' E 037°05'4 1.1 29.2
2015-Mar-27 00:10S 28°49' E 037°00'1 1.4 29.3
2015-Mar-26 23:10S 28°49' E 036°59'3 0.8 29.3
2015-Mar-26 19:10S 28°50' E 036°55'8 1.4 29.3
2015-Mar-26 13:10S 28°52' E 036°46'3 0.9 29.6
2015-Mar-26 10:10S 28°52' E 036°43'9 1.6 29.6
2015-Mar-26 04:10S 28°50' E 036°32'1 0.6 29.2
2015-Mar-26 03:10S 28°50' E 036°31'2 1.6 29.2
2015-Mar-26 02:10S 28°50' E 036°30'4 2.1 29.2
2015-Mar-26 00:10S 28°49' E 036°25'4 1.1 29.2
2015-Mar-25 20:10S 28°48' E 036°20'1 0.6 29.3
2015-Mar-25 19:10S 28°48' E 036°20'2 1.2 29.3
2015-Mar-25 17:10S 28°48' E 036°17'1 1.0 29.4
2015-Mar-25 16:10S 28°47' E 036°16'0 0.2 29.5
2015-Mar-25 15:10S 28°47' E 036°16'2 2.3 29.6
2015-Mar-25 14:10S 28°47' E 036°13'5 2.5 29.6
2015-Mar-25 12:10S 28°45' E 036°08'6 6.0 29.6
2015-Mar-25 11:10S 28°43' E 036°02'6 6.0 29.6
2015-Mar-25 10:10S 28°45' E 036°08'9 2.3 29.5
2015-Mar-25 06:10S 28°41' E 035°59'1 1.3 29.2
2015-Mar-25 05:10S 28°40' E 035°58'3 1.7 29.2
2015-Mar-25 03:10S 28°38' E 035°55'2 1.7 29.2
2015-Mar-25 02:10S 28°37' E 035°53'0 0.0 29.2
2015-Mar-25 01:10S 28°37' E 035°53'1 0.9 29.2
2015-Mar-25 00:10S 28°36' E 035°53'8 1.4 29.2
2015-Mar-24 18:10S 28°30' E 035°46'3 3.1 29.4
2015-Mar-24 17:10S 28°28' E 035°43'0 0.1 29.5
2015-Mar-24 16:10S 28°28' E 035°43'5 1.7 29.5
2015-Mar-24 13:10S 28°24' E 035°40'3 2.7 29.9
2015-Mar-24 12:10S 28°22' E 035°38'0 0.0 29.9
2015-Mar-24 11:10S 28°22' E 035°38'0 0.0 29.9
2015-Mar-24 10:10S 28°22' E 035°38'12 2.0 29.6
2015-Mar-24 04:10S 28°10' E 035°35'6 1.0 29.2
2015-Mar-23 22:10S 28°04' E 035°35'29 1.7 29.3
2015-Mar-23 05:10S 27°35' E 035°35'3 2.6 29.3
2015-Mar-23 04:10S 27°33' E 035°37'0 0.4 29.2
2015-Mar-23 03:10S 27°33' E 035°38'2 2.0 29.3
2015-Mar-23 02:10S 27°31' E 035°39'2 2.0 29.3
2015-Mar-23 01:10S 27°30' E 035°40'3 1.3 29.3
2015-Mar-22 23:10S 27°27' E 035°42'3 3.2 29.3
2015-Mar-22 22:10S 27°25' E 035°44'7 1.4 29.3
2015-Mar-22 17:10S 27°20' E 035°50'7 1.1 29.5
2015-Mar-22 11:10S 27°15' E 035°54'27 1.7 29.6
2015-Mar-21 19:10S 27°00' E 036°20'15 1.0 29.0
2015-Mar-21 03:10S 26°50' E 036°32'   28.5
Track history (hours):
 
Tides and Currents Weather Stations Pressure Air Temp Water Temp Dewpoint Dewpoint Depression Visibility Wind Speed Wind Dir Waves Ship Positions

Drifting buoy 16575

Last reported at 2015-Mar-31 00:10 UTC. Time now 2015-Mar-31 02:03 UTC.
Position S 28°06' E 039°09'.

Water temperature 28.4 ° C

Date/timePositionNaut miles runAvg speedWind from/ knotsBaromVisibWave heightAir tempDewpointWater temp
2015-Mar-31 00:10S 28°06' E 039°09'1 1.2 28.4
2015-Mar-30 23:10S 28°06' E 039°07'2 2.2 28.4
2015-Mar-30 22:10S 28°06' E 039°05'0 0.0 28.4
2015-Mar-30 21:10S 28°06' E 039°05'4 1.9 28.4
2015-Mar-30 19:10S 28°06' E 039°01'1 0.8 28.4
2015-Mar-30 18:10S 28°05' E 038°60'0 0.0 28.4
2015-Mar-30 17:10S 28°05' E 038°60'4 1.3 28.5
2015-Mar-30 14:10S 28°05' E 038°55'1 1.4 28.7
2015-Mar-30 13:10S 28°05' E 038°54'1 1.2 28.7
2015-Mar-30 12:10S 28°05' E 038°52'6 3.1 28.8
2015-Mar-30 10:10S 28°06' E 038°45'3 0.6 28.8
2015-Mar-30 06:10S 28°06' E 038°43'0 0.5 28.4
2015-Mar-30 05:10S 28°06' E 038°42'4 1.9 28.4
2015-Mar-30 03:10S 28°06' E 038°38'0 0.1 28.4
2015-Mar-30 02:10S 28°06' E 038°38'2 2.1 28.5
2015-Mar-30 01:10S 28°06' E 038°35'0 0.1 28.8
2015-Mar-30 00:10S 28°06' E 038°35'1 1.5 28.9
2015-Mar-29 23:10S 28°06' E 038°34'2 1.8 29.0
2015-Mar-29 22:10S 28°07' E 038°32'0 0.1 29.0
2015-Mar-29 21:10S 28°07' E 038°32'4 3.8 29.1
2015-Mar-29 20:10S 28°07' E 038°27'0 0.0 29.1
2015-Mar-29 19:10S 28°07' E 038°27'1 1.2 29.2
2015-Mar-29 18:10S 28°07' E 038°26'4 2.2 29.2
2015-Mar-29 16:10S 28°08' E 038°21'3 2.7 29.3
2015-Mar-29 15:10S 28°08' E 038°18'0 0.1 29.4
2015-Mar-29 13:10S 28°08' E 038°18'2 2.1 29.4
2015-Mar-29 12:10S 28°08' E 038°16'3 1.6 29.4
2015-Mar-29 10:10S 28°08' E 038°12'6 1.6 29.3
2015-Mar-29 06:10S 28°09' E 038°05'4 3.9 29.2
2015-Mar-29 05:10S 28°09' E 038°00'0 0.0 29.2
2015-Mar-29 04:10S 28°09' E 038°00'2 1.1 29.1
2015-Mar-29 02:10S 28°09' E 037°58'3 1.6 29.1
2015-Mar-29 00:10S 28°10' E 037°54'0 0.4 29.1
2015-Mar-28 23:10S 28°09' E 037°54'2 1.6 29.2
2015-Mar-28 22:10S 28°10' E 037°52'2 1.2 29.2
2015-Mar-28 20:10S 28°11' E 037°50'1 0.6 29.2
2015-Mar-28 18:10S 28°11' E 037°48'3 1.0 29.3
2015-Mar-28 15:10S 28°13' E 037°45'4 1.8 29.4
2015-Mar-28 13:10S 28°15' E 037°42'0 0.0 29.6
2015-Mar-28 12:10S 28°15' E 037°42'3 1.3 29.8
2015-Mar-28 10:10S 28°16' E 037°40'4 1.5 29.7
2015-Mar-28 07:10S 28°18' E 037°35'1 1.4 29.3
2015-Mar-28 06:10S 28°19' E 037°34'1 0.7 29.3
2015-Mar-28 04:10S 28°19' E 037°32'1 1.3 29.2
2015-Mar-28 03:10S 28°20' E 037°31'2 1.5 29.2
2015-Mar-28 02:10S 28°21' E 037°30'0 0.3 29.2
2015-Mar-28 01:10S 28°21' E 037°30'2 0.9 29.2
2015-Mar-27 23:10S 28°23' E 037°29'4 2.0 29.2
2015-Mar-27 21:10S 28°27' E 037°26'3 1.3 29.2
2015-Mar-27 19:10S 28°29' E 037°25'2 1.5 29.2
2015-Mar-27 18:10S 28°30' E 037°24'0 0.0 29.3
2015-Mar-27 17:10S 28°30' E 037°24'3 2.8 29.3
2015-Mar-27 16:10S 28°32' E 037°22'1 1.1 29.3
2015-Mar-27 15:10S 28°33' E 037°21'2 2.3 29.4
2015-Mar-27 14:10S 28°35' E 037°19'3 2.9 29.5
2015-Mar-27 13:10S 28°37' E 037°17'0 0.0 29.5
2015-Mar-27 12:10S 28°37' E 037°17'8 3.8 29.6
2015-Mar-27 10:10S 28°43' E 037°11'1 0.4 29.4
2015-Mar-27 07:10S 28°44' E 037°10'1 1.4 29.2
2015-Mar-27 06:10S 28°44' E 037°09'2 2.0 29.2
2015-Mar-27 05:10S 28°46' E 037°07'2 2.5 29.2
2015-Mar-27 04:10S 28°47' E 037°05'4 1.1 29.2
2015-Mar-27 00:10S 28°49' E 037°00'1 1.4 29.3
2015-Mar-26 23:10S 28°49' E 036°59'3 0.8 29.3
2015-Mar-26 19:10S 28°50' E 036°55'8 1.4 29.3
2015-Mar-26 13:10S 28°52' E 036°46'3 0.9 29.6
2015-Mar-26 10:10S 28°52' E 036°43'9 1.6 29.6
2015-Mar-26 04:10S 28°50' E 036°32'1 0.6 29.2
2015-Mar-26 03:10S 28°50' E 036°31'2 1.6 29.2
2015-Mar-26 02:10S 28°50' E 036°30'4 2.1 29.2
2015-Mar-26 00:10S 28°49' E 036°25'4 1.1 29.2
2015-Mar-25 20:10S 28°48' E 036°20'1 0.6 29.3
2015-Mar-25 19:10S 28°48' E 036°20'2 1.2 29.3
2015-Mar-25 17:10S 28°48' E 036°17'1 1.0 29.4
2015-Mar-25 16:10S 28°47' E 036°16'0 0.2 29.5
2015-Mar-25 15:10S 28°47' E 036°16'2 2.3 29.6
2015-Mar-25 14:10S 28°47' E 036°13'5 2.5 29.6
2015-Mar-25 12:10S 28°45' E 036°08'6 6.0 29.6
2015-Mar-25 11:10S 28°43' E 036°02'6 6.0 29.6
2015-Mar-25 10:10S 28°45' E 036°08'9 2.3 29.5
2015-Mar-25 06:10S 28°41' E 035°59'1 1.3 29.2
2015-Mar-25 05:10S 28°40' E 035°58'3 1.7 29.2
2015-Mar-25 03:10S 28°38' E 035°55'2 1.7 29.2
2015-Mar-25 02:10S 28°37' E 035°53'0 0.0 29.2
2015-Mar-25 01:10S 28°37' E 035°53'1 0.9 29.2
2015-Mar-25 00:10S 28°36' E 035°53'8 1.4 29.2
2015-Mar-24 18:10S 28°30' E 035°46'3 3.1 29.4
2015-Mar-24 17:10S 28°28' E 035°43'0 0.1 29.5
2015-Mar-24 16:10S 28°28' E 035°43'5 1.7 29.5
2015-Mar-24 13:10S 28°24' E 035°40'3 2.7 29.9
2015-Mar-24 12:10S 28°22' E 035°38'0 0.0 29.9
2015-Mar-24 11:10S 28°22' E 035°38'0 0.0 29.9
2015-Mar-24 10:10S 28°22' E 035°38'12 2.0 29.6
2015-Mar-24 04:10S 28°10' E 035°35'6 1.0 29.2
2015-Mar-23 22:10S 28°04' E 035°35'29 1.7 29.3
2015-Mar-23 05:10S 27°35' E 035°35'3 2.6 29.3
2015-Mar-23 04:10S 27°33' E 035°37'0 0.4 29.2
2015-Mar-23 03:10S 27°33' E 035°38'2 2.0 29.3
2015-Mar-23 02:10S 27°31' E 035°39'2 2.0 29.3
2015-Mar-23 01:10S 27°30' E 035°40'3 1.3 29.3
2015-Mar-22 23:10S 27°27' E 035°42'3 3.2 29.3
2015-Mar-22 22:10S 27°25' E 035°44'7 1.4 29.3
2015-Mar-22 17:10S 27°20' E 035°50'7 1.1 29.5
2015-Mar-22 11:10S 27°15' E 035°54'27 1.7 29.6
2015-Mar-21 19:10S 27°00' E 036°20'15 1.0 29.0
2015-Mar-21 03:10S 26°50' E 036°32'   28.5

Dump ship's entire track history